createdAt,value
2023-01-12T00:00:37.494Z,5.40
2023-01-12T00:03:10.868Z,5.40
2023-01-12T00:05:37.458Z,5.40
2023-01-12T00:08:05.318Z,5.40
2023-01-12T00:10:38.923Z,5.40
2023-01-12T00:13:11.779Z,5.40
2023-01-12T00:15:57.054Z,5.40
2023-01-12T00:18:29.813Z,5.50
2023-01-12T00:20:56.455Z,5.50
2023-01-12T00:23:24.094Z,5.50
2023-01-12T00:25:58.782Z,5.50
2023-01-12T00:28:25.426Z,5.60
2023-01-12T00:30:58.808Z,5.60
2023-01-12T00:33:25.435Z,5.70
2023-01-12T00:35:58.779Z,5.70
2023-01-12T00:38:32.836Z,5.70
2023-01-12T00:41:07.374Z,5.80
2023-01-12T00:43:59.751Z,5.80
2023-01-12T00:46:30.729Z,5.80
2023-01-12T00:48:57.357Z,5.80
2023-01-12T00:51:30.799Z,5.80
2023-01-12T00:54:03.855Z,5.80
2023-01-12T00:56:33.635Z,5.80
2023-01-12T00:59:00.427Z,5.80
2023-01-12T01:01:33.943Z,5.80
2023-01-12T01:04:01.094Z,5.70
2023-01-12T01:06:33.826Z,5.70
2023-01-12T01:09:00.528Z,5.70
2023-01-12T01:11:27.157Z,5.70
2023-01-12T01:14:01.789Z,5.80
2023-01-12T01:16:36.804Z,5.80
2023-01-12T01:19:12.820Z,5.80
2023-01-12T01:21:46.863Z,5.70
2023-01-12T01:24:14.673Z,5.80
2023-01-12T01:26:42.237Z,5.80
2023-01-12T01:29:15.842Z,5.80
2023-01-12T01:31:42.495Z,5.80
2023-01-12T01:34:09.125Z,5.80
2023-01-12T01:36:42.845Z,5.70
2023-01-12T01:39:16.192Z,5.70
2023-01-12T01:41:49.826Z,5.70
2023-01-12T01:44:31.561Z,5.80
2023-01-12T01:47:14.829Z,5.80
2023-01-12T01:49:49.285Z,5.70
2023-01-12T01:52:27.830Z,5.80
2023-01-12T01:54:57.210Z,5.80
2023-01-12T01:57:35.810Z,5.80
2023-01-12T02:00:05.741Z,5.80
2023-01-12T02:02:33.629Z,5.80
2023-01-12T02:05:07.871Z,5.90
2023-01-12T02:07:34.707Z,6.00
2023-01-12T02:10:02.204Z,5.90
2023-01-12T02:12:53.812Z,6.00
2023-01-12T02:15:43.762Z,6.00
2023-01-12T02:18:30.854Z,6.00
2023-01-12T02:21:19.163Z,6.00
2023-01-12T02:24:31.834Z,5.90
2023-01-12T02:27:40.403Z,6.10
2023-01-12T02:30:32.805Z,6.20
2023-01-12T02:33:05.322Z,6.10
2023-01-12T02:35:51.756Z,6.20
2023-01-12T02:38:54.833Z,6.20
2023-01-12T02:41:47.674Z,6.20
2023-01-12T02:44:32.841Z,6.30
2023-01-12T02:47:05.316Z,6.30
2023-01-12T02:49:44.779Z,6.40
2023-01-12T02:52:16.670Z,6.40
2023-01-12T02:54:55.838Z,6.40
2023-01-12T02:57:31.848Z,6.40
2023-01-12T03:00:07.798Z,6.50
2023-01-12T03:02:35.119Z,6.50
2023-01-12T03:05:08.802Z,6.50
2023-01-12T03:07:53.541Z,6.50
2023-01-12T03:10:48.775Z,6.50
2023-01-12T03:13:23.793Z,6.50
2023-01-12T03:16:01.819Z,6.60
2023-01-12T03:18:54.769Z,6.50
2023-01-12T03:21:30.510Z,6.50
2023-01-12T03:24:16.879Z,6.50
2023-01-12T03:26:49.406Z,6.50
2023-01-12T03:29:28.786Z,6.50
2023-01-12T03:32:02.839Z,6.50
2023-01-12T03:34:36.848Z,6.40
2023-01-12T03:37:32.556Z,6.40
2023-01-12T03:40:29.835Z,6.40
2023-01-12T03:43:23.939Z,6.40
2023-01-12T03:46:04.806Z,6.40
2023-01-12T03:48:43.869Z,6.40
2023-01-12T03:51:29.376Z,6.40
2023-01-12T03:54:03.805Z,6.40
2023-01-12T03:56:35.053Z,6.50
2023-01-12T03:59:10.807Z,6.50
2023-01-12T04:01:43.908Z,6.50
2023-01-12T04:04:16.764Z,6.50
2023-01-12T04:06:43.433Z,6.50
2023-01-12T04:09:16.821Z,6.50
2023-01-12T04:12:08.840Z,6.70
2023-01-12T04:14:35.870Z,6.60
2023-01-12T04:17:02.634Z,6.70
2023-01-12T04:19:35.805Z,6.70
2023-01-12T04:22:20.946Z,6.70
2023-01-12T04:24:54.860Z,6.70
2023-01-12T04:27:21.473Z,6.60
2023-01-12T04:29:48.119Z,6.60
2023-01-12T04:32:21.827Z,6.60
2023-01-12T04:34:54.758Z,6.70
2023-01-12T04:37:41.737Z,6.70
2023-01-12T04:40:11.731Z,6.70
2023-01-12T04:43:14.917Z,6.70
2023-01-12T04:45:43.634Z,6.80
2023-01-12T04:48:25.849Z,6.80
2023-01-12T04:50:52.529Z,6.80
2023-01-12T04:53:21.754Z,6.80
2023-01-12T04:55:55.815Z,6.70
2023-01-12T04:58:28.799Z,6.70
2023-01-12T05:01:01.779Z,6.70
2023-01-12T05:03:41.748Z,6.80
2023-01-12T05:06:08.535Z,6.80
2023-01-12T05:09:00.817Z,6.80
2023-01-12T05:11:28.763Z,6.80
2023-01-12T05:14:03.845Z,6.80
2023-01-12T05:16:30.790Z,6.80
2023-01-12T05:18:57.472Z,6.90
2023-01-12T05:21:31.901Z,6.90
2023-01-12T05:23:58.492Z,6.90
2023-01-12T05:26:31.764Z,7.00
2023-01-12T05:29:04.788Z,7.00
2023-01-12T05:31:34.145Z,7.00
2023-01-12T05:34:07.776Z,7.10
2023-01-12T05:36:40.869Z,7.10
2023-01-12T05:39:13.756Z,7.10
2023-01-12T05:42:12.758Z,7.10
2023-01-12T05:44:45.735Z,7.10
2023-01-12T05:47:12.374Z,7.10
2023-01-12T05:49:52.716Z,7.10
2023-01-12T05:52:19.365Z,7.10
2023-01-12T05:54:52.771Z,7.20
2023-01-12T05:57:19.410Z,7.20
2023-01-12T05:59:52.778Z,7.20
2023-01-12T06:02:21.531Z,7.20
2023-01-12T06:04:54.902Z,7.20
2023-01-12T06:07:21.685Z,7.30
2023-01-12T06:09:54.767Z,7.30
2023-01-12T06:12:39.874Z,7.30
2023-01-12T06:15:13.787Z,7.30
2023-01-12T06:17:40.495Z,7.30
2023-01-12T06:20:14.803Z,7.40
2023-01-12T06:22:41.436Z,7.40
2023-01-12T06:25:15.762Z,7.50
2023-01-12T06:27:42.355Z,7.50
2023-01-12T06:30:17.825Z,7.50
2023-01-12T06:32:50.814Z,7.50
2023-01-12T06:35:19.422Z,7.50
2023-01-12T06:38:03.801Z,7.60
2023-01-12T06:40:36.798Z,7.60
2023-01-12T06:43:03.391Z,7.60
2023-01-12T06:45:36.764Z,7.70
2023-01-12T06:48:03.546Z,7.70
2023-01-12T06:50:30.175Z,7.60
2023-01-12T06:53:06.749Z,7.60
2023-01-12T06:55:39.738Z,7.60
2023-01-12T06:58:06.344Z,7.70
2023-01-12T07:00:39.814Z,7.70
2023-01-12T07:03:06.430Z,7.60
2023-01-12T07:05:33.050Z,7.60
2023-01-12T07:08:09.784Z,7.70
2023-01-12T07:10:37.337Z,7.70
2023-01-12T07:13:10.760Z,7.70
2023-01-12T07:15:37.528Z,7.70
2023-01-12T07:18:10.774Z,7.70
2023-01-12T07:20:37.437Z,7.70
2023-01-12T07:23:10.739Z,7.70
2023-01-12T07:25:37.356Z,7.70
2023-01-12T07:28:10.736Z,7.70
2023-01-12T07:30:37.467Z,7.70
2023-01-12T07:33:18.671Z,7.70
2023-01-12T07:35:51.758Z,7.70
2023-01-12T07:38:32.768Z,7.80
2023-01-12T07:41:03.329Z,7.80
2023-01-12T07:43:36.878Z,7.90
2023-01-12T07:46:03.586Z,7.90
2023-01-12T07:48:30.745Z,7.90
2023-01-12T07:51:05.843Z,7.90
2023-01-12T07:53:32.425Z,7.90
2023-01-12T07:55:59.499Z,8.00
2023-01-12T07:58:33.827Z,8.00
2023-01-12T08:01:00.886Z,8.10
2023-01-12T08:03:27.912Z,8.10
2023-01-12T08:06:02.858Z,8.10
2023-01-12T08:08:29.474Z,8.20
2023-01-12T08:11:11.826Z,8.30
2023-01-12T08:13:40.595Z,8.30
2023-01-12T08:16:23.857Z,8.30
2023-01-12T08:19:08.908Z,8.30
2023-01-12T08:21:52.815Z,8.30
2023-01-12T08:24:25.184Z,8.20
2023-01-12T08:27:01.791Z,8.30
2023-01-12T08:29:34.490Z,8.30
2023-01-12T08:32:13.807Z,8.30
2023-01-12T08:34:43.673Z,8.30
2023-01-12T08:37:20.804Z,8.40
2023-01-12T08:39:48.117Z,8.30
2023-01-12T08:42:21.821Z,8.20
2023-01-12T08:44:54.744Z,8.20
2023-01-12T08:47:33.785Z,8.30
2023-01-12T08:50:00.833Z,8.30
2023-01-12T08:52:38.799Z,8.30
2023-01-12T08:55:05.954Z,8.40
2023-01-12T08:57:38.837Z,8.40
2023-01-12T09:00:12.798Z,8.40
2023-01-12T09:02:39.497Z,8.40
2023-01-12T09:05:06.505Z,8.50
2023-01-12T09:07:40.795Z,8.50
2023-01-12T09:10:08.021Z,8.60
2023-01-12T09:12:40.805Z,8.60
2023-01-12T09:15:07.915Z,8.60
2023-01-12T09:17:40.744Z,8.70
2023-01-12T09:20:13.772Z,8.70
2023-01-12T09:22:40.340Z,8.80
2023-01-12T09:25:07.080Z,8.80
2023-01-12T09:27:40.847Z,8.80
2023-01-12T09:30:08.267Z,8.80
2023-01-12T09:32:37.827Z,8.80
2023-01-12T09:35:11.957Z,8.80
2023-01-12T09:37:46.117Z,8.80
2023-01-12T09:40:21.762Z,8.80
2023-01-12T09:43:09.067Z,8.80
2023-01-12T09:46:00.920Z,8.80
2023-01-12T09:48:34.812Z,8.80
2023-01-12T09:51:11.439Z,8.80
2023-01-12T09:53:47.812Z,8.90
2023-01-12T09:56:30.798Z,8.90
2023-01-12T09:59:48.841Z,8.90
2023-01-12T10:02:15.844Z,9.00
2023-01-12T10:04:49.754Z,9.20
2023-01-12T10:07:18.453Z,9.20
2023-01-12T10:09:51.825Z,9.20
2023-01-12T10:12:30.740Z,9.20
2023-01-12T10:15:14.733Z,9.20
2023-01-12T10:17:51.683Z,9.30
2023-01-12T10:20:38.819Z,9.30
2023-01-12T10:23:08.151Z,9.30
2023-01-12T10:26:08.826Z,9.40
2023-01-12T10:28:37.047Z,9.50
2023-01-12T10:31:11.809Z,9.50
2023-01-12T10:33:38.400Z,9.60
2023-01-12T10:36:32.751Z,9.70
2023-01-12T10:39:03.567Z,9.70
2023-01-12T10:41:45.827Z,9.80
2023-01-12T10:44:15.765Z,9.80
2023-01-12T10:46:49.743Z,9.70
2023-01-12T10:49:24.695Z,9.80
2023-01-12T10:52:10.812Z,9.70
2023-01-12T10:54:41.423Z,9.80
2023-01-12T10:57:25.775Z,9.80
2023-01-12T11:00:01.843Z,9.80
2023-01-12T11:02:42.949Z,9.80
2023-01-12T11:05:44.756Z,9.90
2023-01-12T11:08:33.786Z,9.80
2023-01-12T11:11:21.749Z,9.80
2023-01-12T11:13:57.825Z,9.90
2023-01-12T11:17:04.767Z,9.90
2023-01-12T11:19:43.732Z,9.90
2023-01-12T11:22:18.487Z,9.90
2023-01-12T11:25:26.812Z,9.90
2023-01-12T11:28:01.785Z,9.90
2023-01-12T11:30:43.805Z,9.90
2023-01-12T11:33:24.703Z,9.90
2023-01-12T11:36:07.827Z,9.90
2023-01-12T11:38:51.754Z,9.80
2023-01-12T11:42:11.800Z,9.80
2023-01-12T11:45:02.334Z,9.70
2023-01-12T11:47:42.744Z,9.50
2023-01-12T11:50:26.475Z,9.50
2023-01-12T11:53:01.741Z,9.40
2023-01-12T11:55:48.729Z,9.40
2023-01-12T11:58:31.903Z,9.40
2023-01-12T12:01:02.240Z,9.40
2023-01-12T12:03:50.808Z,9.30
2023-01-12T12:06:35.828Z,9.30
2023-01-12T12:09:38.726Z,9.10
2023-01-12T12:12:16.905Z,9.20
2023-01-12T12:15:03.779Z,9.10
2023-01-12T12:18:12.816Z,9.10
2023-01-12T12:21:10.816Z,9.00
2023-01-12T12:23:56.140Z,9.10
2023-01-12T12:26:41.747Z,9.10
2023-01-12T12:29:40.940Z,9.10
2023-01-12T12:32:23.733Z,9.10
2023-01-12T12:35:20.735Z,9.20
2023-01-12T12:38:08.770Z,9.10
2023-01-12T12:41:20.830Z,9.20
2023-01-12T12:44:22.977Z,9.20
2023-01-12T12:47:05.718Z,9.30
2023-01-12T12:49:34.769Z,9.30
2023-01-12T12:52:08.773Z,9.30
2023-01-12T12:54:35.626Z,9.30
2023-01-12T12:57:10.757Z,9.30
2023-01-12T12:59:52.113Z,9.40
2023-01-12T13:03:00.870Z,9.40
2023-01-12T13:05:42.885Z,9.50
2023-01-12T13:08:29.807Z,9.50
2023-01-12T13:10:58.877Z,9.50
2023-01-12T13:13:45.738Z,9.50
2023-01-12T13:16:15.539Z,9.60
2023-01-12T13:18:59.863Z,9.70
2023-01-12T13:21:26.448Z,9.70
2023-01-12T13:24:29.854Z,9.80
2023-01-12T13:26:58.778Z,9.80
2023-01-12T13:29:34.862Z,9.80
2023-01-12T13:32:33.692Z,9.80
2023-01-12T13:35:41.745Z,9.80
2023-01-12T13:39:09.851Z,9.90
2023-01-12T13:42:09.063Z,9.90
2023-01-12T13:44:39.613Z,9.90
2023-01-12T13:47:34.783Z,9.90
2023-01-12T13:50:03.090Z,9.90
2023-01-12T13:52:39.925Z,9.80
2023-01-12T13:55:24.846Z,9.80
2023-01-12T13:58:22.736Z,9.80
2023-01-12T14:01:07.777Z,9.90
2023-01-12T14:04:03.869Z,9.90
2023-01-12T14:07:13.750Z,9.90
2023-01-12T14:10:14.374Z,9.80
2023-01-12T14:13:17.843Z,9.80
2023-01-12T14:16:02.992Z,9.90
2023-01-12T14:18:55.746Z,9.90
2023-01-12T14:21:27.029Z,9.90
2023-01-12T14:24:14.830Z,9.90
2023-01-12T14:26:41.630Z,9.90
2023-01-12T14:29:12.986Z,9.80
2023-01-12T14:31:50.868Z,9.80
2023-01-12T14:34:44.834Z,9.80
2023-01-12T14:37:33.747Z,9.80
2023-01-12T14:40:07.837Z,9.90
2023-01-12T14:42:59.740Z,9.90
2023-01-12T14:45:46.185Z,9.90
2023-01-12T14:48:49.825Z,9.90
2023-01-12T14:51:32.486Z,9.80
2023-01-12T14:54:28.777Z,9.80
2023-01-12T14:57:08.802Z,9.80
2023-01-12T14:59:42.452Z,9.90
2023-01-12T15:02:28.726Z,9.90
2023-01-12T15:04:59.072Z,9.90
2023-01-12T15:07:37.791Z,9.90
2023-01-12T15:10:10.183Z,9.90
2023-01-12T15:12:54.507Z,9.90
2023-01-12T15:15:24.248Z,9.90
2023-01-12T15:18:18.733Z,9.90
2023-01-12T15:21:11.832Z,9.90
2023-01-12T15:23:57.242Z,9.80
2023-01-12T15:26:30.797Z,9.90
2023-01-12T15:29:03.742Z,9.80
2023-01-12T15:31:36.206Z,9.80
2023-01-12T15:34:10.745Z,9.80
2023-01-12T15:36:37.362Z,9.80
2023-01-12T15:39:20.743Z,9.80
2023-01-12T15:42:12.849Z,9.90
2023-01-12T15:44:47.839Z,9.80
2023-01-12T15:47:22.814Z,9.80
2023-01-12T15:49:51.248Z,9.80
2023-01-12T15:52:30.797Z,9.90
2023-01-12T15:54:57.375Z,9.90
2023-01-12T15:57:30.819Z,9.90
2023-01-12T16:00:04.010Z,9.90
2023-01-12T16:02:38.162Z,9.90
2023-01-12T16:05:12.808Z,9.90
2023-01-12T16:07:39.434Z,9.90
2023-01-12T16:10:12.767Z,9.90
2023-01-12T16:12:39.511Z,9.90
2023-01-12T16:15:15.744Z,9.80
2023-01-12T16:17:42.398Z,9.90
2023-01-12T16:20:16.917Z,9.90
2023-01-12T16:22:44.221Z,9.90
2023-01-12T16:25:11.328Z,9.90
2023-01-12T16:27:45.731Z,9.90
2023-01-12T16:30:21.800Z,9.90
2023-01-12T16:32:48.428Z,9.80
2023-01-12T16:35:15.834Z,9.80
2023-01-12T16:37:49.746Z,9.90
2023-01-12T16:40:29.833Z,9.90
2023-01-12T16:43:03.807Z,9.90
2023-01-12T16:45:30.480Z,9.90
2023-01-12T16:47:57.700Z,9.90
2023-01-12T16:50:30.815Z,9.90
2023-01-12T16:52:57.418Z,9.90
2023-01-12T16:55:24.007Z,9.90
2023-01-12T16:57:56.831Z,9.90
2023-01-12T17:00:23.685Z,9.90
2023-01-12T17:02:50.916Z,10.00
2023-01-12T17:05:23.735Z,10.00
2023-01-12T17:07:50.521Z,10.00
2023-01-12T17:10:23.758Z,10.00
2023-01-12T17:12:59.063Z,10.00
2023-01-12T17:15:28.001Z,10.00
2023-01-12T17:18:02.871Z,10.00
2023-01-12T17:20:29.552Z,10.00
2023-01-12T17:22:56.299Z,10.00
2023-01-12T17:25:29.813Z,10.00
2023-01-12T17:27:56.406Z,10.10
2023-01-12T17:30:23.226Z,10.10
2023-01-12T17:32:56.799Z,10.10
2023-01-12T17:35:23.425Z,10.20
2023-01-12T17:38:09.754Z,10.10
2023-01-12T17:40:39.496Z,10.10
2023-01-12T17:43:14.798Z,10.00
2023-01-12T17:45:42.736Z,10.10
2023-01-12T17:48:18.801Z,10.10
2023-01-12T17:50:47.126Z,10.10
2023-01-12T17:53:14.580Z,10.10
2023-01-12T17:55:49.807Z,10.10
2023-01-12T17:58:22.855Z,10.20
2023-01-12T18:00:55.817Z,10.10
2023-01-12T18:03:22.621Z,10.10
2023-01-12T18:05:57.733Z,10.10
2023-01-12T18:08:35.790Z,10.10
2023-01-12T18:11:07.591Z,10.10
2023-01-12T18:13:45.713Z,10.10
2023-01-12T18:16:20.838Z,10.10
2023-01-12T18:18:47.645Z,10.10
2023-01-12T18:21:23.856Z,10.00
2023-01-12T18:23:58.734Z,10.10
2023-01-12T18:26:28.295Z,10.10
2023-01-12T18:29:03.736Z,10.10
2023-01-12T18:31:39.499Z,10.10
2023-01-12T18:34:16.800Z,10.10
2023-01-12T18:36:43.647Z,10.10
2023-01-12T18:39:31.750Z,10.10
2023-01-12T18:42:23.780Z,10.20
2023-01-12T18:44:50.382Z,10.20
2023-01-12T18:47:41.796Z,10.10
2023-01-12T18:50:34.725Z,10.20
2023-01-12T18:53:26.757Z,10.20
2023-01-12T18:55:55.529Z,10.20
2023-01-12T18:58:36.703Z,10.20
2023-01-12T19:01:14.226Z,10.20
2023-01-12T19:03:47.715Z,10.20
2023-01-12T19:06:20.197Z,10.20
2023-01-12T19:09:11.967Z,10.20
2023-01-12T19:11:46.972Z,10.10
2023-01-12T19:14:38.803Z,10.20
2023-01-12T19:17:37.904Z,10.10
2023-01-12T19:20:18.772Z,10.20
2023-01-12T19:23:03.917Z,10.20
2023-01-12T19:25:55.790Z,10.20
2023-01-12T19:28:38.262Z,10.20
2023-01-12T19:31:15.837Z,10.30
2023-01-12T19:33:45.481Z,10.30
2023-01-12T19:36:22.751Z,10.30
2023-01-12T19:39:13.703Z,10.30
2023-01-12T19:42:05.760Z,10.30
2023-01-12T19:44:38.722Z,10.30
2023-01-12T19:47:11.843Z,10.30
2023-01-12T19:49:38.461Z,10.40
2023-01-12T19:52:05.221Z,10.40
2023-01-12T19:54:38.825Z,10.40
2023-01-12T19:57:06.331Z,10.40
2023-01-12T19:59:32.966Z,10.40
2023-01-12T20:02:07.812Z,10.40
2023-01-12T20:04:34.634Z,10.30
2023-01-12T20:07:07.802Z,10.30
2023-01-12T20:09:34.504Z,10.30
2023-01-12T20:12:01.213Z,10.20
2023-01-12T20:14:35.184Z,10.20
2023-01-12T20:17:01.794Z,10.20
2023-01-12T20:19:28.443Z,10.20
2023-01-12T20:22:01.845Z,10.10
2023-01-12T20:24:29.223Z,10.00
2023-01-12T20:26:56.265Z,10.10
2023-01-12T20:29:29.849Z,10.00
2023-01-12T20:31:56.515Z,10.00
2023-01-12T20:34:23.160Z,9.90
2023-01-12T20:36:56.789Z,10.00
2023-01-12T20:39:30.859Z,9.90
2023-01-12T20:42:04.798Z,9.80
2023-01-12T20:44:32.349Z,9.80
2023-01-12T20:46:59.900Z,9.80
2023-01-12T20:49:32.816Z,9.70
2023-01-12T20:51:59.517Z,9.70
2023-01-12T20:54:26.171Z,9.70
2023-01-12T20:56:59.721Z,9.70
2023-01-12T20:59:26.475Z,9.60
2023-01-12T21:01:53.167Z,9.60
2023-01-12T21:04:26.756Z,9.60
2023-01-12T21:06:53.346Z,9.60
2023-01-12T21:09:26.822Z,9.50
2023-01-12T21:11:53.585Z,9.50
2023-01-12T21:14:20.206Z,9.40
2023-01-12T21:16:53.811Z,9.50
2023-01-12T21:19:20.693Z,9.50
2023-01-12T21:21:47.336Z,9.50
2023-01-12T21:24:20.852Z,9.40
2023-01-12T21:26:47.475Z,9.40
2023-01-12T21:29:14.100Z,9.40
2023-01-12T21:31:46.814Z,9.40
2023-01-12T21:34:19.716Z,9.40
2023-01-12T21:36:46.502Z,9.30
2023-01-12T21:39:26.736Z,9.30
2023-01-12T21:42:18.721Z,9.30
2023-01-12T21:44:45.451Z,9.30
2023-01-12T21:47:12.086Z,9.30
2023-01-12T21:49:44.958Z,9.30
2023-01-12T21:52:11.785Z,9.30
2023-01-12T21:54:44.734Z,9.20
2023-01-12T21:57:11.341Z,9.20
2023-01-12T21:59:44.846Z,9.20
2023-01-12T22:02:11.848Z,9.20
2023-01-12T22:04:38.548Z,9.20
2023-01-12T22:07:11.774Z,9.20
2023-01-12T22:09:39.369Z,9.30
2023-01-12T22:12:12.806Z,9.20
2023-01-12T22:14:39.498Z,9.20
2023-01-12T22:17:06.079Z,9.20
2023-01-12T22:19:39.716Z,9.20
2023-01-12T22:22:06.375Z,9.20
2023-01-12T22:24:39.823Z,9.20
2023-01-12T22:27:06.405Z,9.10
2023-01-12T22:29:33.016Z,9.10
2023-01-12T22:32:05.771Z,9.20
2023-01-12T22:34:32.416Z,9.20
2023-01-12T22:37:05.730Z,9.10
2023-01-12T22:39:52.710Z,9.10
2023-01-12T22:42:26.735Z,9.10
2023-01-12T22:44:56.414Z,9.10
2023-01-12T22:47:30.497Z,9.10
2023-01-12T22:49:57.723Z,9.10
2023-01-12T22:52:30.719Z,9.10
2023-01-12T22:54:57.311Z,9.10
2023-01-12T22:57:30.721Z,9.20
2023-01-12T22:59:57.303Z,9.10
2023-01-12T23:02:48.948Z,9.10
2023-01-12T23:05:15.876Z,9.10
2023-01-12T23:07:48.869Z,9.10
2023-01-12T23:10:15.999Z,9.20
2023-01-12T23:13:08.803Z,9.10
2023-01-12T23:15:44.057Z,9.20
2023-01-12T23:18:17.933Z,9.20
2023-01-12T23:20:51.866Z,9.20
2023-01-12T23:23:24.829Z,9.20
2023-01-12T23:25:51.532Z,9.20
2023-01-12T23:28:24.817Z,9.20
2023-01-12T23:30:51.525Z,9.20
2023-01-12T23:33:24.859Z,9.10
2023-01-12T23:35:51.600Z,9.20
2023-01-12T23:38:38.887Z,9.20
2023-01-12T23:41:16.569Z,9.20
2023-01-12T23:43:49.816Z,9.20
2023-01-12T23:46:17.425Z,9.20
2023-01-12T23:48:50.883Z,9.20
2023-01-12T23:51:17.655Z,9.20
2023-01-12T23:53:51.818Z,9.20
2023-01-12T23:56:19.664Z,9.20
2023-01-12T23:58:53.859Z,9.20
